createdAt,value
2019-05-13T05:59:32.168Z,41.26
2019-05-13T06:00:32.388Z,41.36
2019-05-13T06:01:33.137Z,40.94
2019-05-13T06:02:32.271Z,39.51
2019-05-13T06:03:32.750Z,39.89
2019-05-13T06:04:32.636Z,39.15
2019-05-13T06:05:31.962Z,38.61
2019-05-13T06:06:32.892Z,37.99
2019-05-13T06:07:32.402Z,36.76
2019-05-13T06:08:32.354Z,37.05
2019-05-13T06:09:32.323Z,36.23
2019-05-13T06:10:44.169Z,36.71
2019-05-13T06:11:32.845Z,35.99
2019-05-13T06:12:31.813Z,35.39
2019-05-13T06:13:31.805Z,35.47
2019-05-13T06:14:32.686Z,35.27
2019-05-13T06:15:31.785Z,35.27
2019-05-13T06:16:32.185Z,35.68
2019-05-13T06:17:32.031Z,34.87
2019-05-13T06:18:32.641Z,34.96
2019-05-13T06:19:32.125Z,35.26
2019-05-13T06:20:31.836Z,34.96
2019-05-13T06:21:32.206Z,35.46
2019-05-13T06:22:32.113Z,35.04
2019-05-13T06:23:31.692Z,34.72
2019-05-13T06:24:31.693Z,34.93
2019-05-13T06:25:33.657Z,34.61
2019-05-13T06:26:31.664Z,33.50
2019-05-13T06:27:31.866Z,34.11
2019-05-13T06:28:32.348Z,34.29
2019-05-13T06:29:32.048Z,33.49
2019-05-13T06:30:32.541Z,33.09
2019-05-13T06:31:32.244Z,33.77
2019-05-13T06:32:31.626Z,33.36
2019-05-13T06:33:31.768Z,33.36
2019-05-13T06:34:32.651Z,33.16
2019-05-13T06:35:32.277Z,33.36
2019-05-13T06:36:31.856Z,32.55
2019-05-13T06:37:32.170Z,32.43
2019-05-13T06:38:31.784Z,32.76
2019-05-13T06:39:31.936Z,33.47
2019-05-13T06:40:31.925Z,33.06
2019-05-13T06:41:32.409Z,32.53
2019-05-13T06:42:32.489Z,32.13
2019-05-13T06:43:31.633Z,32.33
2019-05-13T06:44:31.841Z,33.14
2019-05-13T06:45:31.755Z,32.64
2019-05-13T06:46:32.316Z,32.13
2019-05-13T06:47:32.207Z,32.23
2019-05-13T06:48:32.366Z,31.92
2019-05-13T06:49:32.258Z,31.40
2019-05-13T06:50:32.354Z,31.29
2019-05-13T06:51:31.538Z,31.09
2019-05-13T06:52:32.072Z,31.09
2019-05-13T06:53:32.179Z,30.27
2019-05-13T06:54:33.089Z,30.99
2019-05-13T06:55:31.631Z,30.88
2019-05-13T06:56:32.246Z,30.57
2019-05-13T06:57:32.277Z,30.48
2019-05-13T06:58:32.503Z,30.57
2019-05-13T06:59:31.812Z,30.46
2019-05-13T07:00:34.673Z,30.15
2019-05-13T07:01:32.305Z,30.13
2019-05-13T07:02:32.112Z,30.33
2019-05-13T07:03:32.289Z,30.23
2019-05-13T07:04:32.599Z,30.02
2019-05-13T07:05:31.879Z,29.62
2019-05-13T07:06:32.306Z,28.81
2019-05-13T07:07:31.853Z,29.11
2019-05-13T07:08:31.546Z,29.22
2019-05-13T07:09:32.354Z,29.24
2019-05-13T07:10:32.082Z,30.02
2019-05-13T07:11:31.554Z,29.11
2019-05-13T07:12:31.494Z,28.81
2019-05-13T07:13:32.289Z,28.40
2019-05-13T07:14:32.384Z,28.49
2019-05-13T07:15:31.559Z,28.28
2019-05-13T07:16:31.734Z,28.38
2019-05-13T07:17:32.347Z,28.77
2019-05-13T07:18:32.329Z,28.67
2019-05-13T07:19:32.206Z,28.57
2019-05-13T07:20:32.252Z,28.05
2019-05-13T07:21:32.278Z,27.85
2019-05-13T07:22:32.275Z,28.05
2019-05-13T07:23:31.847Z,28.05
2019-05-13T07:24:32.284Z,27.74
2019-05-13T07:25:32.698Z,27.14
2019-05-13T07:26:31.612Z,27.33
2019-05-13T07:27:31.837Z,27.23
2019-05-13T07:28:32.253Z,27.34
2019-05-13T07:29:32.557Z,27.23
2019-05-13T07:30:31.654Z,27.13
2019-05-13T07:31:32.421Z,27.23
2019-05-13T07:32:31.604Z,27.13
2019-05-13T07:33:32.074Z,27.33
2019-05-13T07:34:33.374Z,27.13
2019-05-13T07:35:37.555Z,27.52
2019-05-13T07:36:31.917Z,27.31
2019-05-13T07:37:31.830Z,27.40
2019-05-13T07:38:32.409Z,26.31
2019-05-13T07:39:32.713Z,26.51
2019-05-13T07:40:32.164Z,26.80
2019-05-13T07:41:38.695Z,26.89
2019-05-13T07:42:55.300Z,26.27
2019-05-13T07:43:55.283Z,26.39
2019-05-13T07:44:55.275Z,25.40
2019-05-13T07:45:55.298Z,25.51
2019-05-13T07:46:55.256Z,25.40
2019-05-13T07:47:55.240Z,26.50
2019-05-13T07:48:55.225Z,26.20
2019-05-13T07:49:55.220Z,26.51
2019-05-13T07:51:00.313Z,26.33
2019-05-13T07:52:22.530Z,28.17
2019-05-13T07:53:22.021Z,27.97
2019-05-13T07:54:22.018Z,26.95
2019-05-13T07:55:22.141Z,27.45
2019-05-13T07:56:21.806Z,27.35
2019-05-13T07:57:21.438Z,27.04
2019-05-13T07:58:22.678Z,26.94
2019-05-13T07:59:21.136Z,28.10
2019-05-13T08:00:21.642Z,28.90
2019-05-13T08:01:21.892Z,30.83
2019-05-13T08:02:21.699Z,30.49
2019-05-13T08:03:21.394Z,30.05
2019-05-13T08:04:23.713Z,28.41
2019-05-13T08:05:44.009Z,26.98
2019-05-13T08:06:44.072Z,26.94
2019-05-13T08:07:43.983Z,26.35
2019-05-13T08:08:44.079Z,26.53
2019-05-13T08:09:43.970Z,25.54
2019-05-13T08:10:43.962Z,26.73
2019-05-13T08:12:00.116Z,26.24
2019-05-13T08:13:08.405Z,26.42
2019-05-13T08:14:08.395Z,25.22
2019-05-13T08:15:08.384Z,25.00
2019-05-13T08:16:08.371Z,24.49
2019-05-13T08:17:08.362Z,24.37
2019-05-13T08:18:08.352Z,24.18
2019-05-13T08:19:08.339Z,22.98
2019-05-13T08:20:08.332Z,22.39
2019-05-13T08:21:08.318Z,22.58
2019-05-13T08:22:08.307Z,23.18
2019-05-13T08:23:08.295Z,23.08
2019-05-13T08:24:08.288Z,23.18
2019-05-13T08:25:08.285Z,23.67
2019-05-13T08:26:08.280Z,22.87
2019-05-13T08:27:08.256Z,23.08
2019-05-13T08:28:08.243Z,22.40
2019-05-13T08:29:08.233Z,22.10
2019-05-13T08:30:08.225Z,22.00
2019-05-13T08:31:08.219Z,22.29
2019-05-13T08:32:08.203Z,21.19
2019-05-13T08:33:08.189Z,21.59
2019-05-13T08:34:08.185Z,21.18
2019-05-13T08:35:09.321Z,20.79
2019-05-13T08:36:08.164Z,21.08
2019-05-13T08:37:08.148Z,20.78
2019-05-13T08:38:08.136Z,21.08
2019-05-13T08:39:08.163Z,21.02
2019-05-13T08:40:08.143Z,21.82
2019-05-13T08:41:09.909Z,21.72
2019-05-13T08:42:32.621Z,21.11
2019-05-13T08:43:32.606Z,20.21
2019-05-13T08:44:32.866Z,20.39
2019-05-13T08:45:33.788Z,19.99
2019-05-13T08:46:32.574Z,19.87
2019-05-13T08:47:32.569Z,19.30
2019-05-13T08:48:32.602Z,19.32
2019-05-13T08:49:32.850Z,19.91
2019-05-13T08:50:32.532Z,20.01
2019-05-13T08:51:34.699Z,19.40
2019-05-13T08:52:32.510Z,18.61
2019-05-13T08:53:32.500Z,18.31
2019-05-13T08:54:33.140Z,18.20
2019-05-13T08:55:32.477Z,17.71
2019-05-13T08:56:32.728Z,17.99
2019-05-13T08:57:32.471Z,18.19
2019-05-13T08:58:32.444Z,17.80
2019-05-13T08:59:32.434Z,18.09
2019-05-13T09:00:32.427Z,17.88
2019-05-13T09:01:32.416Z,18.49
2019-05-13T09:02:32.403Z,18.22
2019-05-13T09:03:32.790Z,18.11
2019-05-13T09:04:32.384Z,18.11
2019-05-13T09:05:32.390Z,18.29
2019-05-13T09:06:32.360Z,18.29
2019-05-13T09:07:32.352Z,18.55
2019-05-13T09:08:32.339Z,20.55
2019-05-13T09:09:32.328Z,21.16
2019-05-13T09:10:32.319Z,21.44
2019-05-13T09:11:32.308Z,20.66
2019-05-13T09:12:35.829Z,20.67
2019-05-13T09:13:33.018Z,20.98
2019-05-13T09:14:32.704Z,21.49
2019-05-13T09:15:32.263Z,22.00
2019-05-13T09:16:32.253Z,22.32
2019-05-13T09:17:32.238Z,22.83
2019-05-13T09:18:32.482Z,22.30
2019-05-13T09:19:32.642Z,21.09
2019-05-13T09:20:32.389Z,20.86
2019-05-13T09:21:32.240Z,20.44
2019-05-13T09:22:32.186Z,19.35
2019-05-13T09:23:32.174Z,20.33
2019-05-13T09:24:37.169Z,19.62
2019-05-13T09:25:32.160Z,19.92
2019-05-13T09:26:32.140Z,19.34
2019-05-13T09:27:32.130Z,19.25
2019-05-13T09:28:32.590Z,20.06
2019-05-13T09:29:32.544Z,20.88
2019-05-13T09:30:32.103Z,21.30
2019-05-13T09:31:32.541Z,22.31
2019-05-13T09:32:32.077Z,21.92
2019-05-13T09:33:32.804Z,22.13
2019-05-13T09:34:32.935Z,22.24
2019-05-13T09:35:32.047Z,23.23
2019-05-13T09:36:32.500Z,23.63
2019-05-13T09:37:32.020Z,23.52
2019-05-13T09:38:32.674Z,23.21
2019-05-13T09:39:32.474Z,23.02
2019-05-13T09:40:31.994Z,23.05
2019-05-13T09:41:36.972Z,23.07
2019-05-13T09:42:48.248Z,23.08
2019-05-13T09:43:33.954Z,23.30
2019-05-13T09:44:32.901Z,23.51
2019-05-13T09:45:32.239Z,24.52
2019-05-13T09:46:32.029Z,24.63
2019-05-13T09:47:32.277Z,24.63
2019-05-13T09:48:32.193Z,24.53
2019-05-13T09:49:32.998Z,25.13
2019-05-13T09:50:35.920Z,25.03
2019-05-13T09:51:32.506Z,24.92
2019-05-13T09:52:32.094Z,25.54
2019-05-13T09:53:32.645Z,24.64
2019-05-13T09:54:33.122Z,25.14
2019-05-13T09:55:32.642Z,24.43
2019-05-13T09:56:32.102Z,25.04
2019-05-13T09:57:32.260Z,25.56
2019-05-13T09:58:33.010Z,25.64
2019-05-13T09:59:32.198Z,24.65
2019-05-13T10:00:32.365Z,24.56
2019-05-13T10:01:32.178Z,25.17
2019-05-13T10:02:32.218Z,25.68
2019-05-13T10:03:33.109Z,25.68
2019-05-13T10:04:32.103Z,25.29
2019-05-13T10:05:31.815Z,26.60
2019-05-13T10:06:32.721Z,26.40
2019-05-13T10:07:32.013Z,27.10
2019-05-13T10:08:32.829Z,26.80
2019-05-13T10:09:32.758Z,26.80
2019-05-13T10:10:32.008Z,26.01
2019-05-13T10:11:31.646Z,26.83
2019-05-13T10:12:32.168Z,26.33
2019-05-13T10:13:32.095Z,26.13
2019-05-13T10:14:32.659Z,25.61
2019-05-13T10:15:32.558Z,24.57
2019-05-13T10:16:31.699Z,25.14
2019-05-13T10:17:31.894Z,24.62
2019-05-13T10:18:32.585Z,24.18
2019-05-13T10:19:32.367Z,23.76
2019-05-13T10:20:31.821Z,23.35
2019-05-13T10:21:32.695Z,23.33
2019-05-13T10:22:32.028Z,23.01
2019-05-13T10:23:33.055Z,22.31
2019-05-13T10:24:32.794Z,22.41
2019-05-13T10:25:31.490Z,22.10
2019-05-13T10:26:32.234Z,22.09
2019-05-13T10:27:32.527Z,22.18
2019-05-13T10:28:32.068Z,22.57
2019-05-13T10:29:32.051Z,22.08
2019-05-13T10:30:32.223Z,22.47
2019-05-13T10:31:31.705Z,22.18
2019-05-13T10:32:32.504Z,22.07
2019-05-13T10:33:32.223Z,21.99
2019-05-13T10:34:32.125Z,23.40
2019-05-13T10:35:31.652Z,23.62
2019-05-13T10:36:31.403Z,23.24
2019-05-13T10:37:31.361Z,24.24
2019-05-13T10:38:32.360Z,23.53
2019-05-13T10:39:31.336Z,23.21
2019-05-13T10:40:32.703Z,22.10
2019-05-13T10:41:33.307Z,21.49
2019-05-13T10:42:31.340Z,22.17
2019-05-13T10:43:31.817Z,20.37
2019-05-13T10:44:31.306Z,20.66
2019-05-13T10:45:33.234Z,20.48
2019-05-13T10:46:32.091Z,20.80
2019-05-13T10:47:31.250Z,20.58
2019-05-13T10:48:31.262Z,19.48
2019-05-13T10:49:33.071Z,19.60
2019-05-13T10:50:31.744Z,19.42
2019-05-13T10:51:32.647Z,20.44
2019-05-13T10:52:32.275Z,20.64
2019-05-13T10:53:32.023Z,20.85
2019-05-13T10:54:32.471Z,21.17
2019-05-13T10:55:32.419Z,22.38
2019-05-13T10:56:32.826Z,21.60
2019-05-13T10:57:31.815Z,23.09
2019-05-13T10:58:31.140Z,23.00
2019-05-13T10:59:31.132Z,24.01
2019-05-13T11:00:32.038Z,23.12
2019-05-13T11:01:32.742Z,23.51
2019-05-13T11:02:32.709Z,23.40
2019-05-13T11:03:32.943Z,21.69
2019-05-13T11:04:32.678Z,20.96
2019-05-13T11:05:32.741Z,21.44
2019-05-13T11:06:32.486Z,20.93
2019-05-13T11:07:32.034Z,20.01
2019-05-13T11:08:33.055Z,20.59
2019-05-13T11:09:32.489Z,19.74
2019-05-13T11:10:32.618Z,20.78
2019-05-13T11:11:33.033Z,21.22
2019-05-13T11:12:33.313Z,21.92
2019-05-13T11:13:49.507Z,21.42
2019-05-13T11:14:55.553Z,22.32
2019-05-13T11:15:58.205Z,22.13
2019-05-13T11:16:55.415Z,22.11
2019-05-13T11:17:55.403Z,21.39
2019-05-13T11:18:55.393Z,21.48
2019-05-13T11:19:55.383Z,20.76
2019-05-13T11:20:55.372Z,21.08
2019-05-13T11:21:55.361Z,21.08
2019-05-13T11:22:55.353Z,21.08
2019-05-13T11:23:55.346Z,21.58
2019-05-13T11:24:55.330Z,21.19
2019-05-13T11:25:55.317Z,22.63
2019-05-13T11:26:55.340Z,22.41
2019-05-13T11:27:58.382Z,21.72
2019-05-13T11:28:55.289Z,22.11
2019-05-13T11:29:55.274Z,21.78
2019-05-13T11:30:59.593Z,21.69
2019-05-13T11:31:55.251Z,22.07
2019-05-13T11:32:55.243Z,22.47
2019-05-13T11:33:55.229Z,21.85
2019-05-13T11:34:55.223Z,21.72
2019-05-13T11:35:55.207Z,21.30
2019-05-13T11:36:55.200Z,20.88
2019-05-13T11:37:55.186Z,20.18
2019-05-13T11:38:55.177Z,20.55
2019-05-13T11:39:55.166Z,20.47
2019-05-13T11:40:55.161Z,20.56
2019-05-13T11:41:55.149Z,19.87
2019-05-13T11:42:55.140Z,18.78
2019-05-13T11:44:12.112Z,19.47
2019-05-13T11:45:21.558Z,19.16
2019-05-13T11:46:21.945Z,18.48
2019-05-13T11:47:19.574Z,18.57
2019-05-13T11:48:19.560Z,17.99
2019-05-13T11:49:19.546Z,18.30
2019-05-13T11:50:21.566Z,18.70
2019-05-13T11:51:19.547Z,18.60
2019-05-13T11:52:22.152Z,18.01
2019-05-13T11:53:32.560Z,18.11
2019-05-13T11:54:22.368Z,18.01
2019-05-13T11:55:22.463Z,18.20
2019-05-13T11:56:22.721Z,16.71
2019-05-13T11:57:19.469Z,17.51
2019-05-13T11:59:21.974Z,17.81
2019-05-13T12:00:19.431Z,17.81
2019-05-13T12:01:22.615Z,18.31
2019-05-13T12:02:22.932Z,18.21
2019-05-13T12:03:22.689Z,18.02
2019-05-13T12:04:23.275Z,18.34
2019-05-13T12:05:22.154Z,18.84
2019-05-13T12:06:22.922Z,18.64
2019-05-13T12:07:22.944Z,18.34
2019-05-13T12:08:22.814Z,18.32
2019-05-13T12:09:22.015Z,18.44
2019-05-13T12:10:19.327Z,18.06
2019-05-13T12:11:21.707Z,19.06
2019-05-13T12:12:19.304Z,19.16
2019-05-13T12:13:19.294Z,19.15
2019-05-13T12:15:28.796Z,19.26
2019-05-13T12:16:43.736Z,19.14
2019-05-13T12:17:43.728Z,18.44
2019-05-13T12:18:44.049Z,18.84
2019-05-13T12:19:43.706Z,18.06
2019-05-13T12:20:43.693Z,18.06
2019-05-13T12:21:46.808Z,18.35
2019-05-13T12:22:43.677Z,18.76
2019-05-13T12:23:43.663Z,19.78
2019-05-13T12:24:43.649Z,19.37
2019-05-13T12:25:43.985Z,19.15
2019-05-13T12:26:43.792Z,18.75
2019-05-13T12:27:43.621Z,19.25
2019-05-13T12:28:43.610Z,19.25
2019-05-13T12:29:43.596Z,19.26
2019-05-13T12:30:43.586Z,19.28
2019-05-13T12:31:43.591Z,19.79
2019-05-13T12:32:43.934Z,19.68
2019-05-13T12:33:44.204Z,19.50
2019-05-13T12:34:45.923Z,20.61
2019-05-13T12:35:43.533Z,20.12
2019-05-13T12:36:43.676Z,20.44
2019-05-13T12:37:43.514Z,20.24
2019-05-13T12:38:44.270Z,20.74
2019-05-13T12:39:44.110Z,21.55
2019-05-13T12:40:43.479Z,21.45
2019-05-13T12:41:43.467Z,21.05
2019-05-13T12:42:47.110Z,21.74
2019-05-13T12:43:43.444Z,21.05
2019-05-13T12:45:00.599Z,21.14
2019-05-13T12:46:07.906Z,21.25
2019-05-13T12:47:07.889Z,22.45
2019-05-13T12:48:07.881Z,22.14
2019-05-13T12:49:07.868Z,22.14
2019-05-13T12:50:07.856Z,22.24
2019-05-13T12:51:07.849Z,22.35
2019-05-13T12:52:07.835Z,22.26
2019-05-13T12:53:07.859Z,22.56
2019-05-13T12:54:07.816Z,22.06
2019-05-13T12:55:07.803Z,22.46
2019-05-13T12:56:07.799Z,22.36
2019-05-13T12:57:11.990Z,22.18
2019-05-13T12:58:33.995Z,23.28
2019-05-13T12:59:32.274Z,23.38
2019-05-13T13:00:32.904Z,23.68
2019-05-13T13:01:32.531Z,22.57
2019-05-13T13:02:32.733Z,21.67
2019-05-13T13:03:32.460Z,21.97
2019-05-13T13:04:33.474Z,22.37
2019-05-13T13:06:40.312Z,22.56
2019-05-13T13:07:40.813Z,22.56
2019-05-13T13:08:56.628Z,22.27
2019-05-13T13:09:56.618Z,22.27
2019-05-13T13:10:56.611Z,22.57
2019-05-13T13:11:56.605Z,21.97
2019-05-13T13:12:56.589Z,22.97
2019-05-13T13:14:00.103Z,22.48
2019-05-13T13:14:57.580Z,22.37
2019-05-13T13:15:56.591Z,22.87
2019-05-13T13:16:56.540Z,22.67
2019-05-13T13:17:56.528Z,22.97
2019-05-13T13:18:56.519Z,23.27
2019-05-13T13:20:04.708Z,22.36
2019-05-13T13:21:24.317Z,21.86
2019-05-13T13:22:45.449Z,22.56
2019-05-13T13:23:45.437Z,22.48
2019-05-13T13:24:51.668Z,23.28
2019-05-13T13:26:15.632Z,23.00
2019-05-13T13:27:59.949Z,23.41
2019-05-13T13:28:58.818Z,23.93
2019-05-13T13:30:03.242Z,24.53
2019-05-13T13:31:25.302Z,24.51
2019-05-13T13:32:24.652Z,24.62
2019-05-13T13:33:23.251Z,24.10
2019-05-13T13:34:26.050Z,23.89
2019-05-13T13:35:23.232Z,23.48
2019-05-13T13:36:24.140Z,23.57
2019-05-13T13:37:23.204Z,24.08
2019-05-13T13:38:25.304Z,23.78
2019-05-13T13:39:25.491Z,23.18
2019-05-13T13:40:28.404Z,23.29
2019-05-13T13:41:25.161Z,23.69
2019-05-13T13:42:23.149Z,23.69
2019-05-13T13:43:24.599Z,23.69
2019-05-13T13:45:25.117Z,23.59
2019-05-13T13:46:36.311Z,24.49
2019-05-13T13:47:24.416Z,24.69
2019-05-13T13:48:25.584Z,24.99
2019-05-13T13:49:23.465Z,24.99
2019-05-13T13:50:24.488Z,24.29
2019-05-13T13:51:26.352Z,24.90
2019-05-13T13:52:23.043Z,24.20
2019-05-13T13:53:25.993Z,25.20
2019-05-13T13:54:23.014Z,25.10
2019-05-13T13:55:25.873Z,25.20
2019-05-13T13:56:25.299Z,25.00
2019-05-13T13:57:25.563Z,24.80
2019-05-13T13:58:25.367Z,25.00
2019-05-13T13:59:24.757Z,24.60
2019-05-13T14:00:39.326Z,25.00
2019-05-13T14:01:47.411Z,24.30
2019-05-13T14:02:47.414Z,24.40
2019-05-13T14:03:47.389Z,24.50
2019-05-13T14:04:47.382Z,24.42
2019-05-13T14:05:47.365Z,24.43
2019-05-13T14:06:39.633Z,21.96
2019-05-13T14:07:03.724Z,18.85
2019-05-13T14:07:09.314Z,23.59
2019-05-13T14:08:12.536Z,24.43
2019-05-13T14:09:12.131Z,24.12
2019-05-13T14:10:11.832Z,24.32
2019-05-13T14:11:11.974Z,23.62
2019-05-13T14:12:11.780Z,23.51
2019-05-13T14:13:12.553Z,23.51
2019-05-13T14:14:12.388Z,23.62
2019-05-13T14:15:11.751Z,23.51
2019-05-13T14:16:42.212Z,23.51
2019-05-13T14:17:36.195Z,23.70
2019-05-13T14:18:36.187Z,23.71
2019-05-13T14:19:36.175Z,24.43
2019-05-13T14:20:36.176Z,23.52
2019-05-13T14:21:36.155Z,24.32
2019-05-13T14:22:36.141Z,24.62
2019-05-13T14:23:37.967Z,23.71
2019-05-13T14:24:36.135Z,24.43
2019-05-13T14:25:36.108Z,24.24
2019-05-13T14:26:36.097Z,24.54
2019-05-13T14:27:36.170Z,24.54
2019-05-13T14:28:36.074Z,24.94
2019-05-13T14:29:41.316Z,24.45
2019-05-13T14:30:37.121Z,24.95
2019-05-13T14:31:36.041Z,24.55
2019-05-13T14:32:36.033Z,25.26
2019-05-13T14:33:36.030Z,25.67
2019-05-13T14:34:36.015Z,25.36
2019-05-13T14:35:36.002Z,25.46
2019-05-13T14:36:35.988Z,25.45
2019-05-13T14:37:35.974Z,24.86
2019-05-13T14:38:35.965Z,25.56
2019-05-13T14:39:36.305Z,25.36
2019-05-13T14:40:35.955Z,25.56
2019-05-13T14:41:35.936Z,25.55
2019-05-13T14:42:35.924Z,25.55
2019-05-13T14:43:35.914Z,25.25
2019-05-13T14:44:35.911Z,25.85
2019-05-13T14:45:35.888Z,25.15
2019-05-13T14:46:47.304Z,25.25
2019-05-13T14:48:01.682Z,25.65
2019-05-13T14:49:01.667Z,25.97
2019-05-13T14:50:01.929Z,25.97
2019-05-13T14:51:01.889Z,25.48
2019-05-13T14:52:01.252Z,26.48
2019-05-13T14:53:01.546Z,26.49
2019-05-13T14:54:02.578Z,27.39
2019-05-13T14:55:02.175Z,27.09
2019-05-13T14:56:02.900Z,26.99
2019-05-13T14:57:02.398Z,26.89
2019-05-13T14:58:01.617Z,27.31
2019-05-13T14:59:01.975Z,27.31
2019-05-13T15:00:17.732Z,27.31
2019-05-13T15:01:24.671Z,27.11
2019-05-13T15:02:24.663Z,27.20
2019-05-13T15:03:24.655Z,27.32
2019-05-13T15:04:24.643Z,27.32
2019-05-13T15:05:24.636Z,26.31
2019-05-13T15:06:24.663Z,27.02
2019-05-13T15:07:24.607Z,27.32
2019-05-13T15:08:25.888Z,26.51
2019-05-13T15:09:24.588Z,26.72
2019-05-13T15:10:24.572Z,26.72
2019-05-13T15:11:24.561Z,26.51
2019-05-13T15:12:24.553Z,25.81
2019-05-13T15:13:24.545Z,25.62
2019-05-13T15:14:24.532Z,27.33
2019-05-13T15:15:24.520Z,27.23
2019-05-13T15:16:24.508Z,27.03
2019-05-13T15:17:24.499Z,27.23
2019-05-13T15:18:24.531Z,27.12
2019-05-13T15:19:24.475Z,25.51
2019-05-13T15:20:24.477Z,25.91
2019-05-13T15:21:24.487Z,25.70
2019-05-13T15:22:24.496Z,25.61
2019-05-13T15:23:24.439Z,25.80
2019-05-13T15:24:24.431Z,26.00
2019-05-13T15:25:24.434Z,26.40
2019-05-13T15:26:24.439Z,25.81
2019-05-13T15:27:24.437Z,25.80
2019-05-13T15:28:24.375Z,26.11
2019-05-13T15:29:24.370Z,26.51
2019-05-13T15:30:24.355Z,26.62
2019-05-13T15:31:24.344Z,25.70
2019-05-13T15:32:24.366Z,26.31
2019-05-13T15:33:24.343Z,26.31
2019-05-13T15:34:24.309Z,26.72
2019-05-13T15:35:24.300Z,26.42
2019-05-13T15:36:24.289Z,26.72
2019-05-13T15:37:24.362Z,26.51
2019-05-13T15:38:24.268Z,27.12
2019-05-13T15:39:24.253Z,26.72
2019-05-13T15:40:24.242Z,27.52
2019-05-13T15:41:24.236Z,26.62
2019-05-13T15:42:24.224Z,27.11
2019-05-13T15:43:24.212Z,27.11
2019-05-13T15:44:24.293Z,26.80
2019-05-13T15:45:24.192Z,27.41
2019-05-13T15:46:24.178Z,27.20
2019-05-13T15:47:26.913Z,27.00
2019-05-13T15:48:24.158Z,27.92
2019-05-13T15:49:24.145Z,26.92
2019-05-13T15:50:24.136Z,26.72
2019-05-13T15:51:24.124Z,27.12
2019-05-13T15:52:24.116Z,26.42
2019-05-13T15:53:24.098Z,26.01
2019-05-13T15:54:24.089Z,26.54
2019-05-13T15:55:24.082Z,26.66
2019-05-13T15:56:24.073Z,26.67
2019-05-13T15:57:24.056Z,26.06
2019-05-13T15:58:38.368Z,26.26
2019-05-13T15:59:25.050Z,26.55
2019-05-13T16:00:24.054Z,26.24
2019-05-13T16:01:24.011Z,26.44
2019-05-13T16:02:24.003Z,25.12
2019-05-13T16:03:23.987Z,25.53
2019-05-13T16:04:24.116Z,24.92
2019-05-13T16:05:23.967Z,25.53
2019-05-13T16:06:23.954Z,25.62
2019-05-13T16:07:23.951Z,25.81
2019-05-13T16:08:23.933Z,26.51
2019-05-13T16:09:23.922Z,25.31
2019-05-13T16:10:23.910Z,26.12
2019-05-13T16:11:23.900Z,25.12
2019-05-13T16:12:23.888Z,24.92
2019-05-13T16:13:23.877Z,26.23
2019-05-13T16:14:23.865Z,25.93
2019-05-13T16:15:23.856Z,25.93
2019-05-13T16:16:23.851Z,26.54
2019-05-13T16:17:37.792Z,26.53
2019-05-13T16:18:48.305Z,26.43
2019-05-13T16:19:48.290Z,26.03
2019-05-13T16:20:48.277Z,26.93
2019-05-13T16:21:48.271Z,26.33
2019-05-13T16:22:48.256Z,26.84
2019-05-13T16:23:48.245Z,26.64
2019-05-13T16:24:48.232Z,26.14
2019-05-13T16:25:48.225Z,26.44
2019-05-13T16:26:48.217Z,26.44
2019-05-13T16:27:48.199Z,27.46
2019-05-13T16:28:48.186Z,27.66
2019-05-13T16:29:48.183Z,28.17
2019-05-13T16:30:48.195Z,29.08
2019-05-13T16:31:48.156Z,28.68
2019-05-13T16:32:48.446Z,29.18
2019-05-13T16:33:48.129Z,29.20
2019-05-13T16:34:48.117Z,29.50
2019-05-13T16:35:48.107Z,29.41
2019-05-13T16:36:48.093Z,29.41
2019-05-13T16:37:48.083Z,30.22
2019-05-13T16:38:48.070Z,30.23
2019-05-13T16:39:48.060Z,30.84
2019-05-13T16:40:48.049Z,30.94
2019-05-13T16:41:48.038Z,30.74
2019-05-13T16:42:48.030Z,30.74
2019-05-13T16:43:48.012Z,30.95
2019-05-13T16:44:48.002Z,30.55
2019-05-13T16:45:47.989Z,30.85
2019-05-13T16:46:47.978Z,30.94
2019-05-13T16:47:57.243Z,30.85
2019-05-13T16:49:12.433Z,30.43
2019-05-13T16:50:12.424Z,30.55
2019-05-13T16:51:12.861Z,30.35
2019-05-13T16:52:12.399Z,30.75
2019-05-13T16:53:12.392Z,30.75
2019-05-13T16:54:12.390Z,30.04
2019-05-13T16:56:25.694Z,30.16
2019-05-13T16:57:36.822Z,30.04
2019-05-13T16:58:36.813Z,30.97
2019-05-13T16:59:36.804Z,30.26
2019-05-13T17:00:36.793Z,30.75
2019-05-13T17:01:36.779Z,30.95
2019-05-13T17:02:36.774Z,29.84
2019-05-13T17:03:36.758Z,30.15
2019-05-13T17:04:36.745Z,30.55
2019-05-13T17:05:36.742Z,30.45
2019-05-13T17:06:36.727Z,30.04
2019-05-13T17:07:36.715Z,29.94
2019-05-13T17:08:36.705Z,29.84
2019-05-13T17:09:36.699Z,29.94
2019-05-13T17:10:36.680Z,29.84
2019-05-13T17:11:36.676Z,30.65
2019-05-13T17:12:36.663Z,30.55
2019-05-13T17:13:36.644Z,30.55
2019-05-13T17:14:36.650Z,30.67
2019-05-13T17:15:36.621Z,30.15
2019-05-13T17:16:36.613Z,30.06
2019-05-13T17:17:36.602Z,30.25
2019-05-13T17:18:36.586Z,30.25
2019-05-13T17:19:36.575Z,30.95
2019-05-13T17:20:36.565Z,30.45
2019-05-13T17:21:36.559Z,30.35
2019-05-13T17:22:36.548Z,30.75
2019-05-13T17:23:36.531Z,30.95
2019-05-13T17:24:36.519Z,30.85
2019-05-13T17:25:36.507Z,30.85
2019-05-13T17:26:36.498Z,29.94
2019-05-13T17:27:36.485Z,30.15
2019-05-13T17:28:36.477Z,30.95
2019-05-13T17:29:36.463Z,30.55
2019-05-13T17:30:36.454Z,30.45
2019-05-13T17:31:36.440Z,30.45
2019-05-13T17:32:36.429Z,30.63
2019-05-13T17:33:36.421Z,30.74
2019-05-13T17:34:36.413Z,30.25
2019-05-13T17:35:36.399Z,30.55
2019-05-13T17:36:36.390Z,30.25
2019-05-13T17:37:36.377Z,30.25
2019-05-13T17:38:36.368Z,31.06
2019-05-13T17:39:36.361Z,30.95
2019-05-13T17:40:36.340Z,30.35
2019-05-13T17:41:36.335Z,30.55
2019-05-13T17:42:36.321Z,30.55
2019-05-13T17:43:36.310Z,30.45
2019-05-13T17:44:36.404Z,30.35
2019-05-13T17:45:36.291Z,30.35
2019-05-13T17:46:36.286Z,30.25
2019-05-13T17:47:36.266Z,30.75
2019-05-13T17:48:36.254Z,30.84
2019-05-13T17:49:36.242Z,30.63
2019-05-13T17:50:36.232Z,30.84
2019-05-13T17:51:36.219Z,30.03
2019-05-13T17:52:36.212Z,30.45
2019-05-13T17:53:36.199Z,30.75
2019-05-13T17:54:36.187Z,31.15
2019-05-13T17:55:36.178Z,31.06
2019-05-13T17:56:36.165Z,30.95
2019-05-13T17:57:36.153Z,30.97
2019-05-13T17:58:36.153Z,31.26
2019-05-13T17:59:36.135Z,31.66
2019-05-13T18:00:36.124Z,31.56
2019-05-13T18:01:36.111Z,31.35
2019-05-13T18:02:36.105Z,31.17
2019-05-13T18:03:36.094Z,31.26
2019-05-13T18:04:36.079Z,31.46
2019-05-13T18:05:36.065Z,30.87
2019-05-13T18:06:36.054Z,30.45
2019-05-13T18:07:36.043Z,29.74
2019-05-13T18:08:36.034Z,30.04
2019-05-13T18:09:36.021Z,30.97
2019-05-13T18:10:36.010Z,30.95
2019-05-13T18:11:36.002Z,30.46
2019-05-13T18:12:35.990Z,30.46
2019-05-13T18:13:35.976Z,30.56
2019-05-13T18:14:35.964Z,30.56
2019-05-13T18:15:35.956Z,30.56
2019-05-13T18:16:35.945Z,30.77
2019-05-13T18:17:35.934Z,31.49
2019-05-13T18:18:46.392Z,31.18
2019-05-13T18:19:36.928Z,30.98
2019-05-13T18:21:35.888Z,31.40
2019-05-13T18:22:35.890Z,31.61
2019-05-13T18:23:35.867Z,31.50
2019-05-13T18:24:35.852Z,31.52
2019-05-13T18:25:35.846Z,31.42
2019-05-13T18:26:35.832Z,31.92
2019-05-13T18:27:35.819Z,31.52
2019-05-13T18:28:35.815Z,31.23
2019-05-13T18:29:35.797Z,32.02
2019-05-13T18:30:35.792Z,32.04
2019-05-13T18:31:35.774Z,32.12
2019-05-13T18:32:35.764Z,32.12
2019-05-13T18:33:35.755Z,32.93
2019-05-13T18:34:35.739Z,32.55
2019-05-13T18:35:35.728Z,32.95
2019-05-13T18:36:35.717Z,32.55
2019-05-13T18:37:35.711Z,32.55
2019-05-13T18:38:35.702Z,32.64
2019-05-13T18:39:35.684Z,32.55
2019-05-13T18:40:35.673Z,32.55
2019-05-13T18:41:35.667Z,32.34
2019-05-13T18:42:35.651Z,33.27
2019-05-13T18:44:35.634Z,33.06
2019-05-13T18:45:35.619Z,33.47
2019-05-13T18:46:35.609Z,33.47
2019-05-13T18:47:35.593Z,34.17
2019-05-13T18:48:35.593Z,34.48
2019-05-13T18:49:35.572Z,34.08
2019-05-13T18:50:35.571Z,34.17
2019-05-13T18:51:35.545Z,35.08
2019-05-13T18:52:35.534Z,35.00
2019-05-13T18:53:35.522Z,35.10
2019-05-13T18:55:35.502Z,34.92
2019-05-13T18:56:35.488Z,35.44
2019-05-13T18:57:35.476Z,35.94
2019-05-13T18:58:35.463Z,35.44
2019-05-13T19:01:35.433Z,36.67
2019-05-13T19:04:35.396Z,37.20
2019-05-13T19:06:35.374Z,36.89
2019-05-13T19:07:35.365Z,37.60
2019-05-13T19:08:35.349Z,37.10
2019-05-13T19:09:35.338Z,37.60
2019-05-13T19:10:35.331Z,37.81
2019-05-13T19:11:35.320Z,37.81
2019-05-13T19:12:35.307Z,38.01